Time;durP1;ratioP1;P1;durP2;ratioP2;P2;SDS_P1;SDS_P2;PMS_P1;PMS_P2;Temp;Humidity;BMP_temperature;BMP_pressure;BME280_temperature;BME280_humidity;BME280_pressure;Samples;Min_cycle;Max_cycle;Signal;HPM_P1;HPM_P2
2023/01/17 00:01:36;;;;;;;4.28;0.90;;;4.20;99.90;;;;;;5066998;28;20533;-91
2023/01/17 00:09:52;;;;;;;1.17;0.50;;;4.20;99.90;;;;;;5000132;28;20046;-91
2023/01/17 00:12:19;;;;;;;1.98;0.82;;;4.20;99.90;;;;;;4995358;28;20180;-91
2023/01/17 00:14:45;;;;;;;1.10;0.73;;;4.20;99.90;;;;;;5001443;28;20037;-91
2023/01/17 00:17:11;;;;;;;2.63;0.75;;;4.20;99.90;;;;;;5003716;28;20041;-91
2023/01/17 01:35:10;;;;;;;2.33;0.40;;;4.10;99.90;;;;;;5092911;28;20043;-91
2023/01/17 01:37:36;;;;;;;2.75;0.77;;;4.10;99.90;;;;;;5070755;28;20032;-91
2023/01/17 01:40:02;;;;;;;0.60;0.35;;;4.10;99.90;;;;;;5056862;28;20118;-91
2023/01/17 01:42:27;;;;;;;1.85;0.50;;;4.10;99.90;;;;;;5071850;28;20066;-90
2023/01/17 01:44:53;;;;;;;1.67;0.38;;;4.00;99.90;;;;;;5090970;28;20560;-91
2023/01/17 01:47:19;;;;;;;1.58;0.35;;;3.90;99.90;;;;;;5092989;28;20112;-92
2023/01/17 01:49:45;;;;;;;2.17;0.55;;;3.90;99.90;;;;;;5075951;28;20480;-91
2023/01/17 01:52:11;;;;;;;0.85;0.32;;;3.80;99.90;;;;;;5092194;28;20478;-91
2023/01/17 01:54:42;;;;;;;2.70;0.50;;;3.80;99.90;;;;;;5076255;28;20110;-91
2023/01/17 01:57:10;;;;;;;1.90;0.65;;;3.70;99.90;;;;;;5074838;28;20043;-91
2023/01/17 01:59:40;;;;;;;2.28;0.28;;;3.70;99.90;;;;;;5076317;28;20039;-91
2023/01/17 02:02:06;;;;;;;2.00;0.85;;;3.60;99.90;;;;;;5091248;28;20176;-90
2023/01/17 02:04:32;;;;;;;0.30;0.28;;;3.60;99.90;;;;;;5092901;28;20117;-91
2023/01/17 02:07:11;;;;;;;4.30;0.98;;;3.60;99.90;;;;;;5091770;28;20040;-91
2023/01/17 02:09:36;;;;;;;9.80;1.15;;;3.50;99.90;;;;;;5070129;28;20084;-92
2023/01/17 02:12:04;;;;;;;3.65;0.40;;;3.50;99.90;;;;;;5093052;28;20118;-91
2023/01/17 02:14:29;;;;;;;1.27;0.43;;;3.50;99.90;;;;;;5091927;28;20407;-91
2023/01/17 02:17:27;;;;;;;2.10;0.47;;;3.50;99.90;;;;;;5092689;28;20548;-91
2023/01/17 02:20:17;;;;;;;1.00;0.30;;;3.50;99.90;;;;;;5076054;28;20040;-91
2023/01/17 02:23:01;;;;;;;2.55;0.88;;;3.40;99.90;;;;;;5074710;28;20126;-91
2023/01/17 02:25:39;;;;;;;1.67;0.40;;;3.40;99.90;;;;;;5075652;28;20369;-90
2023/01/17 02:28:40;;;;;;;3.33;0.75;;;3.40;99.90;;;;;;5074608;28;20096;-91
2023/01/17 02:31:26;;;;;;;1.95;0.40;;;3.40;99.90;;;;;;5093885;28;20038;-91
2023/01/17 02:34:13;;;;;;;2.17;0.68;;;3.40;99.90;;;;;;5078480;28;20075;-91
2023/01/17 02:36:48;;;;;;;1.38;0.32;;;3.40;99.90;;;;;;5079157;28;20520;-91
2023/01/17 02:39:24;;;;;;;1.77;0.38;;;3.30;99.90;;;;;;5078835;28;20118;-91
2023/01/17 02:41:55;;;;;;;2.75;0.40;;;3.30;99.90;;;;;;5095994;28;20047;-91
2023/01/17 02:44:21;;;;;;;6.22;1.05;;;3.30;99.90;;;;;;5077902;28;20531;-92
2023/01/17 02:46:55;;;;;;;3.70;0.73;;;3.30;99.90;;;;;;5078554;28;20035;-90
2023/01/17 02:49:28;;;;;;;3.03;0.40;;;3.30;99.90;;;;;;5095180;28;20118;-91
2023/01/17 02:52:06;;;;;;;6.25;1.00;;;3.30;99.90;;;;;;5078864;28;20047;-91
2023/01/17 02:54:55;;;;;;;3.10;0.30;;;3.30;99.90;;;;;;5078946;28;20073;-91
2023/01/17 02:57:20;;;;;;;1.75;0.50;;;3.20;99.90;;;;;;5077678;28;20043;-91
2023/01/17 02:59:49;;;;;;;6.13;0.90;;;3.20;99.90;;;;;;5096123;28;20043;-91
2023/01/17 03:02:45;;;;;;;3.38;0.47;;;3.20;99.90;;;;;;5090126;28;20039;-90
2023/01/17 03:05:22;;;;;;;2.15;0.40;;;3.10;99.90;;;;;;5095496;28;20043;-90
2023/01/17 03:07:50;;;;;;;1.17;0.50;;;3.10;99.90;;;;;;5077809;28;20145;-90
2023/01/17 03:10:17;;;;;;;2.65;0.38;;;3.10;99.90;;;;;;5077117;28;20122;-90
2023/01/17 03:12:44;;;;;;;2.17;0.60;;;3.10;99.90;;;;;;5095156;28;20139;-91
2023/01/17 03:15:16;;;;;;;1.55;0.35;;;3.10;99.90;;;;;;5077758;28;20032;-90
2023/01/17 03:17:47;;;;;;;2.83;0.40;;;3.10;99.90;;;;;;5095114;28;20042;-90
2023/01/17 03:20:13;;;;;;;1.65;0.40;;;3.10;99.90;;;;;;5078081;28;20028;-91
2023/01/17 03:22:38;;;;;;;0.30;0.25;;;3.10;99.90;;;;;;5078081;28;20083;-91
2023/01/17 03:25:05;;;;;;;1.90;0.50;;;3.10;99.90;;;;;;5076933;28;20434;-91
2023/01/17 03:27:31;;;;;;;2.20;0.40;;;3.10;99.90;;;;;;5094944;28;20556;-91
2023/01/17 03:29:56;;;;;;;1.50;0.35;;;3.10;99.90;;;;;;5077347;28;20172;-90
2023/01/17 03:32:22;;;;;;;0.85;0.75;;;3.10;99.90;;;;;;5077634;28;20032;-90
2023/01/17 03:34:48;;;;;;;3.25;0.60;;;3.10;99.90;;;;;;5078807;28;20047;-91
2023/01/17 03:37:13;;;;;;;1.88;0.47;;;3.10;99.90;;;;;;5093724;28;20047;-90
2023/01/17 03:39:39;;;;;;;3.72;0.68;;;3.10;99.90;;;;;;5095284;28;20036;-91
2023/01/17 03:42:05;;;;;;;2.83;0.52;;;3.10;99.90;;;;;;5077444;28;20510;-90
2023/01/17 03:44:30;;;;;;;0.40;0.25;;;3.10;99.90;;;;;;5093164;28;20467;-91
2023/01/17 03:46:56;;;;;;;1.90;0.45;;;3.00;99.90;;;;;;5077479;28;20063;-90
2023/01/17 03:49:21;;;;;;;1.15;0.40;;;3.00;99.90;;;;;;5077575;28;20083;-90
2023/01/17 03:51:47;;;;;;;2.83;0.60;;;3.00;99.90;;;;;;5077536;28;20040;-90
2023/01/17 03:54:13;;;;;;;2.15;0.50;;;3.00;99.90;;;;;;5077604;28;20095;-91
2023/01/17 03:56:38;;;;;;;5.20;0.75;;;3.00;99.90;;;;;;5076889;28;20067;-90
2023/01/17 03:59:04;;;;;;;2.17;0.88;;;2.90;99.90;;;;;;5078007;28;20500;-91
2023/01/17 04:01:29;;;;;;;6.03;0.63;;;2.90;99.90;;;;;;5076672;28;20046;-91
2023/01/17 04:03:55;;;;;;;1.40;0.40;;;2.90;99.90;;;;;;5076611;28;20462;-91
2023/01/17 04:06:20;;;;;;;3.50;0.40;;;2.90;99.90;;;;;;5077320;28;20039;-90
2023/01/17 04:08:46;;;;;;;1.83;0.40;;;2.90;99.90;;;;;;5076446;28;20178;-90
2023/01/17 04:11:12;;;;;;;5.00;0.60;;;2.90;99.90;;;;;;5077875;28;20050;-90
2023/01/17 04:13:37;;;;;;;4.65;0.75;;;2.80;99.90;;;;;;5093654;28;20032;-90
2023/01/17 04:16:03;;;;;;;0.88;0.50;;;2.90;99.90;;;;;;5094208;28;20040;-90
2023/01/17 04:18:29;;;;;;;1.80;0.50;;;2.80;99.90;;;;;;5077151;28;20027;-90
2023/01/17 04:20:54;;;;;;;3.13;0.45;;;2.80;99.90;;;;;;5077133;28;20122;-91
2023/01/17 04:23:20;;;;;;;3.30;0.57;;;2.80;99.90;;;;;;5076718;28;20047;-89
2023/01/17 04:25:46;;;;;;;5.60;0.60;;;2.80;99.90;;;;;;5075315;28;20047;-90
2023/01/17 04:28:11;;;;;;;0.65;0.28;;;2.80;99.90;;;;;;5072410;28;20035;-90
2023/01/17 04:30:37;;;;;;;0.70;0.30;;;2.80;99.90;;;;;;5077082;28;20038;-91
2023/01/17 04:33:03;;;;;;;1.98;0.40;;;2.80;99.90;;;;;;5076445;28;20394;-91
2023/01/17 04:35:32;;;;;;;4.20;0.75;;;2.80;99.90;;;;;;5094237;28;20122;-91
2023/01/17 04:37:58;;;;;;;2.70;0.50;;;2.70;99.90;;;;;;5076100;28;20053;-90
2023/01/17 04:40:24;;;;;;;3.47;0.45;;;2.70;99.90;;;;;;5110165;28;20432;-91
2023/01/17 04:42:50;;;;;;;6.68;0.60;;;2.60;99.90;;;;;;5088209;28;20035;-90
2023/01/17 04:45:16;;;;;;;3.28;0.93;;;2.60;99.90;;;;;;5074472;28;20493;-91
2023/01/17 04:47:41;;;;;;;2.60;0.65;;;2.60;99.90;;;;;;5093935;28;20100;-91
2023/01/17 04:50:08;;;;;;;2.63;0.50;;;2.50;99.90;;;;;;5071127;28;20496;-90
2023/01/17 04:52:34;;;;;;;2.38;0.55;;;2.50;99.90;;;;;;5077042;28;20039;-91
2023/01/17 04:54:59;;;;;;;4.95;0.55;;;2.50;99.90;;;;;;5075595;28;20047;-90
2023/01/17 04:57:25;;;;;;;3.47;0.52;;;2.40;99.90;;;;;;5077157;28;20073;-91
2023/01/17 04:59:52;;;;;;;2.75;0.40;;;2.40;99.90;;;;;;5076328;28;20508;-91
2023/01/17 05:02:18;;;;;;;6.43;0.80;;;2.40;99.90;;;;;;5093157;28;20050;-91
2023/01/17 05:04:44;;;;;;;3.17;0.80;;;2.40;99.90;;;;;;5076358;28;20035;-90
2023/01/17 05:07:09;;;;;;;2.53;0.80;;;2.40;99.90;;;;;;5092531;28;20088;-90
2023/01/17 05:09:35;;;;;;;3.60;0.95;;;2.30;99.90;;;;;;5075841;28;20039;-90
2023/01/17 05:12:00;;;;;;;2.92;0.60;;;2.30;99.90;;;;;;5076779;28;20042;-91
2023/01/17 05:14:26;;;;;;;4.15;0.80;;;2.30;99.90;;;;;;5092493;28;20080;-90
2023/01/17 05:16:53;;;;;;;2.85;0.57;;;2.20;99.90;;;;;;5076056;28;20100;-90
2023/01/17 05:19:18;;;;;;;5.35;0.68;;;2.20;99.90;;;;;;5076584;28;20039;-91
2023/01/17 05:21:44;;;;;;;1.85;0.63;;;2.10;99.90;;;;;;5072439;28;20035;-91
2023/01/17 05:24:10;;;;;;;3.00;0.70;;;2.10;99.90;;;;;;5092642;28;20126;-90
2023/01/17 05:26:35;;;;;;;5.45;1.45;;;2.10;99.90;;;;;;5075741;28;20039;-90
2023/01/17 05:29:01;;;;;;;3.28;0.60;;;2.10;99.90;;;;;;5075685;28;20051;-91
2023/01/17 05:31:26;;;;;;;4.43;1.10;;;2.10;99.90;;;;;;5076315;28;20039;-91
2023/01/17 05:33:52;;;;;;;4.55;0.55;;;2.00;99.90;;;;;;5073362;28;20557;-91
2023/01/17 05:36:18;;;;;;;4.38;0.80;;;2.10;99.90;;;;;;5093136;28;20032;-90
2023/01/17 05:38:43;;;;;;;0.75;0.40;;;2.10;99.90;;;;;;5075927;28;20051;-91
2023/01/17 05:41:09;;;;;;;2.20;0.50;;;2.00;99.90;;;;;;5076053;28;20042;-90
2023/01/17 05:43:34;;;;;;;1.35;0.38;;;2.00;99.90;;;;;;5092683;28;20054;-90
2023/01/17 05:46:00;;;;;;;3.92;0.95;;;2.00;99.90;;;;;;5075391;28;20043;-90
2023/01/17 05:48:26;;;;;;;1.85;0.93;;;2.00;99.90;;;;;;5075973;28;20501;-91
2023/01/17 05:50:51;;;;;;;5.28;0.95;;;2.00;99.90;;;;;;5091810;28;20074;-90
2023/01/17 05:53:17;;;;;;;2.20;0.50;;;1.90;99.90;;;;;;5076378;28;20126;-91
2023/01/17 05:55:42;;;;;;;7.75;1.25;;;1.90;99.90;;;;;;5092844;28;20173;-91
2023/01/17 05:58:15;;;;;;;1.55;0.40;;;1.90;99.90;;;;;;5075190;28;20044;-90
2023/01/17 06:00:41;;;;;;;1.08;0.43;;;1.90;99.90;;;;;;5093440;28;20102;-90
2023/01/17 06:03:07;;;;;;;3.78;0.60;;;1.80;99.90;;;;;;5091612;28;20044;-90
2023/01/17 06:05:33;;;;;;;2.25;0.50;;;1.80;99.90;;;;;;5075850;28;20036;-90
2023/01/17 06:07:58;;;;;;;3.35;0.75;;;1.80;99.90;;;;;;5096617;28;20743;-90
2023/01/17 06:10:25;;;;;;;4.18;0.70;;;1.80;99.90;;;;;;5071264;28;20566;-90
2023/01/17 06:13:11;;;;;;;4.53;0.47;;;1.80;99.90;;;;;;5077998;28;20114;-90
2023/01/17 06:15:37;;;;;;;2.92;0.63;;;1.70;99.90;;;;;;5077718;28;20028;-91
2023/01/17 06:18:09;;;;;;;4.93;0.82;;;1.70;99.90;;;;;;5077596;28;20537;-90
2023/01/17 06:20:35;;;;;;;3.28;0.80;;;1.70;99.90;;;;;;5078573;28;20401;-90
2023/01/17 06:23:03;;;;;;;2.45;0.60;;;1.70;99.90;;;;;;5078725;28;20093;-89
2023/01/17 06:25:30;;;;;;;2.65;0.70;;;1.70;99.90;;;;;;5079284;28;20039;-91
2023/01/17 06:27:55;;;;;;;5.97;0.98;;;1.70;99.90;;;;;;5078319;28;20118;-90
2023/01/17 06:30:21;;;;;;;5.63;0.95;;;1.70;99.90;;;;;;5078924;28;20540;-90
2023/01/17 06:32:53;;;;;;;4.75;1.23;;;1.70;99.90;;;;;;5095714;28;20034;-90
2023/01/17 06:35:20;;;;;;;4.50;0.60;;;1.60;99.90;;;;;;5078690;28;20077;-90
2023/01/17 06:37:48;;;;;;;9.73;1.13;;;1.60;99.90;;;;;;5079004;28;20039;-89
2023/01/17 06:40:14;;;;;;;2.42;0.73;;;1.60;99.90;;;;;;5078093;28;20043;-89
2023/01/17 06:42:39;;;;;;;7.05;1.08;;;1.60;99.90;;;;;;5079059;28;20046;-89
2023/01/17 06:45:06;;;;;;;3.00;0.68;;;1.60;99.90;;;;;;5094532;28;20032;-89
2023/01/17 06:47:31;;;;;;;5.70;0.85;;;1.70;99.90;;;;;;5096023;28;20043;-90
2023/01/17 06:49:57;;;;;;;7.88;0.95;;;1.70;99.90;;;;;;5095858;28;20558;-90
2023/01/17 06:52:22;;;;;;;3.95;1.17;;;1.60;99.90;;;;;;5077769;28;20435;-90
2023/01/17 06:54:48;;;;;;;1.80;0.50;;;1.70;99.90;;;;;;5079469;28;20051;-90
2023/01/17 06:57:14;;;;;;;2.92;0.60;;;1.70;99.90;;;;;;5078841;28;20049;-91
2023/01/17 06:59:39;;;;;;;6.30;0.60;;;1.70;99.90;;;;;;5095116;28;20437;-90
2023/01/17 07:02:05;;;;;;;6.32;0.60;;;1.70;99.90;;;;;;5079023;28;20088;-90
2023/01/17 07:04:30;;;;;;;5.43;0.68;;;1.70;99.90;;;;;;5078521;28;20497;-90
2023/01/17 07:06:56;;;;;;;1.90;0.70;;;1.70;99.90;;;;;;5078399;28;20105;-90
2023/01/17 07:09:21;;;;;;;3.97;0.73;;;1.60;99.90;;;;;;5078366;28;20036;-90
2023/01/17 07:11:47;;;;;;;6.80;0.70;;;1.70;99.90;;;;;;5094860;28;20071;-90
2023/01/17 07:14:13;;;;;;;2.95;0.80;;;1.70;99.90;;;;;;5095731;28;20069;-91
2023/01/17 07:16:39;;;;;;;2.90;0.60;;;1.70;99.90;;;;;;5077336;28;20031;-90
2023/01/17 07:19:05;;;;;;;3.25;0.85;;;1.60;99.90;;;;;;5095190;28;20047;-89
2023/01/17 07:21:30;;;;;;;2.08;0.40;;;1.70;99.90;;;;;;5094732;28;20472;-90
2023/01/17 07:23:56;;;;;;;3.65;0.45;;;1.70;99.90;;;;;;5078134;28;20043;-90
2023/01/17 07:26:21;;;;;;;3.50;0.63;;;1.70;99.90;;;;;;5078262;28;20067;-90
2023/01/17 07:28:47;;;;;;;3.30;0.88;;;1.70;99.90;;;;;;5093703;28;20570;-89
2023/01/17 07:31:12;;;;;;;4.38;1.13;;;1.70;99.90;;;;;;5077892;28;20032;-90
2023/01/17 07:33:38;;;;;;;2.20;0.50;;;1.60;99.90;;;;;;5072908;28;20047;-89
2023/01/17 07:36:06;;;;;;;5.55;0.93;;;1.60;99.90;;;;;;5094608;28;20032;-90
2023/01/17 07:38:32;;;;;;;2.90;1.10;;;1.60;99.90;;;;;;5078246;28;20080;-89
2023/01/17 07:40:58;;;;;;;3.67;0.98;;;1.50;99.90;;;;;;5094154;28;20510;-90
2023/01/17 07:43:24;;;;;;;2.05;0.80;;;1.50;99.90;;;;;;5092411;28;20038;-91
2023/01/17 07:45:50;;;;;;;6.07;1.05;;;1.40;99.90;;;;;;5093121;28;20027;-91
2023/01/17 07:48:17;;;;;;;7.13;1.13;;;1.50;99.90;;;;;;5094074;28;20036;-91
2023/01/17 07:50:42;;;;;;;1.73;0.55;;;1.40;99.90;;;;;;5093498;28;20059;-90
2023/01/17 07:53:09;;;;;;;5.20;1.67;;;1.40;99.90;;;;;;5076164;28;20471;-91
2023/01/17 07:55:34;;;;;;;1.05;0.50;;;1.40;99.90;;;;;;5094674;28;20139;-90
2023/01/17 07:58:00;;;;;;;2.03;0.73;;;1.40;99.90;;;;;;5074413;28;20119;-91
2023/01/17 08:00:26;;;;;;;3.58;0.80;;;1.40;99.90;;;;;;5077331;28;20408;-90
2023/01/17 08:02:58;;;;;;;2.78;0.75;;;1.40;99.90;;;;;;5093548;28;20043;-89
2023/01/17 08:05:24;;;;;;;2.35;0.75;;;1.40;99.90;;;;;;5076042;28;20046;-90
2023/01/17 08:07:50;;;;;;;1.88;0.57;;;1.40;99.90;;;;;;5077573;28;20031;-91
2023/01/17 08:10:17;;;;;;;4.10;0.77;;;1.50;99.90;;;;;;5092947;28;20549;-90
2023/01/17 08:12:49;;;;;;;4.57;0.80;;;1.40;99.90;;;;;;5093359;28;20113;-91
2023/01/17 08:15:16;;;;;;;0.75;0.40;;;1.40;99.90;;;;;;5093586;28;20043;-91
2023/01/17 08:17:52;;;;;;;1.55;0.60;;;1.50;99.90;;;;;;5092651;28;20040;-91
2023/01/17 08:20:18;;;;;;;8.07;0.63;;;1.50;99.90;;;;;;5093522;28;20410;-91
2023/01/17 08:22:44;;;;;;;2.67;0.75;;;1.40;99.90;;;;;;5071362;28;20047;-91
2023/01/17 08:25:10;;;;;;;4.55;0.98;;;1.40;99.90;;;;;;5076971;28;20062;-91
2023/01/17 08:27:35;;;;;;;6.60;0.95;;;1.40;99.90;;;;;;5075689;28;20547;-91
2023/01/17 08:30:02;;;;;;;4.07;0.77;;;1.40;99.90;;;;;;5075787;28;20031;-90
2023/01/17 08:32:28;;;;;;;6.70;1.27;;;1.40;99.90;;;;;;5075147;28;20028;-90
2023/01/17 08:34:55;;;;;;;4.55;0.98;;;1.40;99.90;;;;;;5076781;28;20053;-90
2023/01/17 08:37:21;;;;;;;3.40;0.55;;;1.40;99.90;;;;;;5076685;28;20039;-90
2023/01/17 08:39:47;;;;;;;9.55;1.38;;;1.40;99.90;;;;;;5075506;28;20572;-90
2023/01/17 08:42:13;;;;;;;4.40;0.88;;;1.50;99.90;;;;;;5076125;28;20443;-91
2023/01/17 08:44:38;;;;;;;4.82;0.70;;;1.50;99.90;;;;;;5092513;28;20093;-90
2023/01/17 08:47:04;;;;;;;4.43;1.58;;;1.50;99.90;;;;;;5075993;28;20672;-90
2023/01/17 08:49:30;;;;;;;4.22;0.90;;;1.50;99.90;;;;;;5092679;28;20122;-90
2023/01/17 08:51:56;;;;;;;1.98;0.85;;;1.50;99.90;;;;;;5092518;28;20040;-90
2023/01/17 08:54:21;;;;;;;1.77;0.70;;;1.50;99.90;;;;;;5091713;28;20424;-89
2023/01/17 08:56:48;;;;;;;8.90;1.20;;;1.50;99.90;;;;;;5092418;28;20467;-90
2023/01/17 08:59:13;;;;;;;4.55;1.00;;;1.50;99.90;;;;;;5068141;28;20040;-89
2023/01/17 09:01:40;;;;;;;4.57;0.98;;;1.60;99.90;;;;;;5076728;28;20036;-90
2023/01/17 09:04:10;;;;;;;4.40;1.20;;;1.60;99.90;;;;;;5091949;28;20123;-90
2023/01/17 09:06:38;;;;;;;6.70;1.65;;;1.60;99.90;;;;;;5072894;28;20086;-90
2023/01/17 09:09:04;;;;;;;4.30;1.23;;;1.60;99.90;;;;;;5092018;28;20039;-90
2023/01/17 09:11:30;;;;;;;4.25;1.27;;;1.60;99.90;;;;;;5074999;28;20078;-90
2023/01/17 09:13:56;;;;;;;3.47;1.45;;;1.70;99.90;;;;;;5092487;28;20098;-91
2023/01/17 09:16:21;;;;;;;6.68;1.85;;;1.70;99.90;;;;;;5088485;28;20036;-90
2023/01/17 09:18:47;;;;;;;8.02;2.63;;;1.80;99.90;;;;;;5056031;28;20069;-90
2023/01/17 09:21:15;;;;;;;4.72;1.65;;;1.80;99.90;;;;;;5080140;28;20046;-90
2023/01/17 09:23:41;;;;;;;6.60;1.58;;;1.80;99.90;;;;;;5076249;28;20036;-90
2023/01/17 09:26:19;;;;;;;6.97;1.95;;;1.90;99.90;;;;;;5092670;28;20043;-90
2023/01/17 09:28:45;;;;;;;5.07;1.70;;;1.90;99.90;;;;;;5074723;28;20035;-90
2023/01/17 09:31:11;;;;;;;7.43;1.85;;;2.00;99.90;;;;;;5092382;28;20043;-90
2023/01/17 09:33:37;;;;;;;8.73;1.55;;;2.00;99.90;;;;;;5074001;28;20447;-90
2023/01/17 09:36:04;;;;;;;5.10;1.30;;;2.00;99.90;;;;;;5075339;28;20032;-90
2023/01/17 09:38:30;;;;;;;5.38;1.73;;;2.10;99.90;;;;;;5075198;28;20193;-90
2023/01/17 09:40:57;;;;;;;6.00;1.90;;;2.10;99.90;;;;;;5091604;28;20119;-90
2023/01/17 09:43:28;;;;;;;11.07;1.83;;;2.20;99.90;;;;;;5096376;28;20411;-90
2023/01/17 09:45:54;;;;;;;12.40;3.50;;;2.20;99.90;;;;;;5096310;28;20047;-90
2023/01/17 09:48:30;;;;;;;6.80;2.08;;;2.20;99.90;;;;;;5078538;28;20059;-90
2023/01/17 09:51:13;;;;;;;6.65;1.70;;;2.30;99.90;;;;;;5095630;28;20080;-91
2023/01/17 09:53:40;;;;;;;5.35;1.50;;;2.30;99.90;;;;;;5095204;28;20481;-89
2023/01/17 09:56:12;;;;;;;4.10;1.58;;;2.30;99.90;;;;;;5079633;28;20689;-91
2023/01/17 09:59:15;;;;;;;8.82;1.70;;;2.40;99.90;;;;;;5079610;28;20043;-90
2023/01/17 10:01:43;;;;;;;7.22;2.05;;;2.40;99.90;;;;;;5078518;28;20074;-90
2023/01/17 10:04:09;;;;;;;6.50;1.85;;;2.50;99.90;;;;;;5079324;28;20524;-90
2023/01/17 10:06:57;;;;;;;5.75;1.75;;;2.50;99.90;;;;;;5095404;28;20036;-90
2023/01/17 10:09:46;;;;;;;6.43;1.77;;;2.60;99.90;;;;;;5092195;28;20573;-89
2023/01/17 10:12:37;;;;;;;5.35;2.22;;;2.70;99.90;;;;;;5065631;28;20122;-90
2023/01/17 10:15:12;;;;;;;7.00;1.85;;;2.70;99.90;;;;;;5066211;28;20040;-90
2023/01/17 10:18:26;;;;;;;9.13;2.25;;;2.80;99.90;;;;;;5058840;28;20076;-90
2023/01/17 10:21:02;;;;;;;;;;;2.90;99.90;;;;;;5091675;28;20039;-90
2023/01/17 10:23:49;;;;;;;4.57;1.67;;;3.00;99.90;;;;;;5085460;28;19927;-90
2023/01/17 10:26:20;;;;;;;6.38;1.80;;;3.00;99.90;;;;;;5085717;28;20090;-90
2023/01/17 10:28:50;;;;;;;11.05;2.33;;;3.10;99.90;;;;;;5068157;28;20596;-90
2023/01/17 10:31:24;;;;;;;5.45;1.50;;;3.20;99.90;;;;;;5068536;28;20471;-87
2023/01/17 10:33:52;;;;;;;5.70;1.45;;;3.30;99.90;;;;;;5085674;28;20051;-87
2023/01/17 10:36:24;;;;;;;8.63;1.63;;;3.40;99.90;;;;;;5084032;28;20041;-90
2023/01/17 10:39:03;;;;;;;6.13;1.98;;;3.50;99.90;;;;;;5069293;28;20044;-90
2023/01/17 10:41:35;;;;;;;9.90;1.80;;;3.60;99.90;;;;;;5067572;28;20040;-90
2023/01/17 10:44:34;;;;;;;5.38;2.08;;;3.70;99.90;;;;;;5082482;28;20376;-90
2023/01/17 10:47:09;;;;;;;6.60;1.65;;;3.80;99.90;;;;;;5083830;28;20040;-90
2023/01/17 10:49:38;;;;;;;5.03;1.77;;;3.80;99.90;;;;;;5065731;28;20036;-90
2023/01/17 10:52:07;;;;;;;5.85;1.80;;;3.90;99.90;;;;;;5066678;28;20043;-90
2023/01/17 10:55:08;;;;;;;7.43;2.15;;;3.90;99.90;;;;;;5082769;28;20112;-91
2023/01/17 10:57:42;;;;;;;5.85;1.50;;;4.00;99.90;;;;;;5071265;28;20397;-90
2023/01/17 11:00:16;;;;;;;7.28;1.70;;;4.10;99.90;;;;;;5076243;28;20050;-90
2023/01/17 11:02:48;;;;;;;5.03;1.83;;;4.10;99.90;;;;;;5076375;28;20058;-91
2023/01/17 11:05:29;;;;;;;6.50;1.52;;;4.20;99.90;;;;;;5093295;28;20558;-90
2023/01/17 11:08:08;;;;;;;6.75;1.77;;;4.30;99.90;;;;;;5093760;28;20081;-89
2023/01/17 11:10:38;;;;;;;7.07;1.52;;;4.30;99.90;;;;;;5075512;28;20024;-90
2023/01/17 11:13:30;;;;;;;9.35;2.30;;;4.30;99.90;;;;;;5088904;28;20525;-89
2023/01/17 11:16:08;;;;;;;9.27;3.40;;;4.40;99.90;;;;;;5077202;28;20122;-89
2023/01/17 11:18:37;;;;;;;8.82;1.83;;;4.50;99.90;;;;;;5073556;28;20080;-89
2023/01/17 11:21:20;;;;;;;6.95;2.25;;;4.60;99.90;;;;;;5092627;28;20059;-90
2023/01/17 11:23:57;;;;;;;2.50;0.77;;;4.70;99.90;;;;;;5092481;28;20039;-90
2023/01/17 11:26:24;;;;;;;9.27;1.90;;;4.70;99.90;;;;;;5093964;28;20062;-90
2023/01/17 11:28:51;;;;;;;4.22;0.90;;;4.80;99.90;;;;;;5093344;28;20558;-90
2023/01/17 11:31:16;;;;;;;3.78;1.15;;;4.80;99.90;;;;;;5092950;28;20043;-90
2023/01/17 11:33:54;;;;;;;1.45;0.73;;;4.80;99.90;;;;;;5076610;28;20130;-90
2023/01/17 11:36:31;;;;;;;5.20;1.10;;;4.80;99.90;;;;;;5093679;28;20150;-91
2023/01/17 11:39:01;;;;;;;4.78;1.33;;;4.80;99.90;;;;;;5106988;28;20058;-91
2023/01/17 11:41:35;;;;;;;3.90;1.38;;;4.90;99.90;;;;;;5058252;28;20051;-91
2023/01/17 11:44:18;;;;;;;3.65;1.20;;;5.00;99.90;;;;;;5076001;28;20040;-89
2023/01/17 11:46:44;;;;;;;4.50;1.25;;;5.00;99.90;;;;;;5093229;28;20036;-91
2023/01/17 11:49:22;;;;;;;7.40;1.55;;;5.10;99.90;;;;;;5076068;28;20406;-91
2023/01/17 11:51:47;;;;;;;5.65;2.38;;;5.10;99.90;;;;;;5076259;28;20500;-91
2023/01/17 11:54:38;;;;;;;4.93;1.38;;;5.10;99.90;;;;;;5055692;28;1048982;-91
2023/01/17 11:57:06;;;;;;;4.13;1.15;;;5.20;99.90;;;;;;5077589;28;20070;-91
2023/01/17 11:59:36;;;;;;;4.53;1.42;;;5.30;99.90;;;;;;5093968;28;20031;-91
2023/01/17 12:02:30;;;;;;;5.35;1.70;;;5.30;99.90;;;;;;5076752;28;20501;-91
2023/01/17 12:05:23;;;;;;;9.55;1.67;;;5.40;99.90;;;;;;5075732;28;20047;-91
2023/01/17 12:08:14;;;;;;;5.53;1.50;;;5.50;99.90;;;;;;5093397;28;20043;-92
2023/01/17 12:10:58;;;;;;;5.57;1.48;;;5.50;99.90;;;;;;5076448;28;20032;-91
2023/01/17 12:16:41;;;;;;;4.28;1.17;;;5.60;99.90;;;;;;5093067;28;20458;-91
2023/01/17 12:19:25;;;;;;;6.95;1.73;;;5.80;99.90;;;;;;5098008;28;20047;-92
2023/01/17 12:22:21;;;;;;;6.40;1.77;;;6.00;99.90;;;;;;5084259;28;20164;-93
2023/01/17 12:24:58;;;;;;;4.18;1.30;;;6.40;99.90;;;;;;5065591;28;20093;-92
2023/01/17 12:27:34;;;;;;;3.00;1.23;;;6.80;98.10;;;;;;5066546;28;20031;-92
2023/01/17 12:30:05;;;;;;;8.30;1.45;;;7.30;94.00;;;;;;5065836;28;20132;-92
2023/01/17 12:33:14;;;;;;;7.65;1.48;;;8.10;93.90;;;;;;5080146;28;20036;-93
2023/01/17 12:35:54;;;;;;;4.22;1.15;;;9.10;90.70;;;;;;5066410;28;20457;-93
2023/01/17 12:38:27;;;;;;;5.07;1.50;;;9.80;83.20;;;;;;5066596;28;20083;-93
2023/01/17 12:41:17;;;;;;;6.43;1.48;;;10.20;83.00;;;;;;5081506;28;20039;-93
2023/01/17 12:43:44;;;;;;;7.45;1.55;;;10.70;81.80;;;;;;5064437;28;20120;-93
2023/01/17 12:46:37;;;;;;;7.63;1.40;;;11.20;80.30;;;;;;5083749;28;20039;-93
2023/01/17 12:49:17;;;;;;;5.53;1.73;;;11.70;75.50;;;;;;5065628;28;20028;-94
2023/01/17 12:51:44;;;;;;;7.20;1.38;;;12.30;75.60;;;;;;5082205;28;20032;-94
2023/01/17 12:54:23;;;;;;;10.80;2.10;;;12.70;75.30;;;;;;5083223;28;20528;-93
2023/01/17 12:57:07;;;;;;;6.30;1.45;;;13.10;71.90;;;;;;5065483;28;20090;-94
2023/01/17 12:59:41;;;;;;;8.32;1.75;;;13.30;69.50;;;;;;5066425;28;20404;-93
2023/01/17 13:02:32;;;;;;;7.03;1.70;;;13.70;67.70;;;;;;5082504;28;20094;-93
2023/01/17 13:05:17;;;;;;;8.50;2.05;;;13.80;64.80;;;;;;5058200;28;20528;-93
2023/01/17 13:07:54;;;;;;;4.15;1.45;;;14.10;63.80;;;;;;5089118;28;20036;-92
2023/01/17 13:10:29;;;;;;;8.70;2.10;;;14.50;65.10;;;;;;5066111;28;20046;-93
2023/01/17 13:12:59;;;;;;;7.95;1.80;;;14.80;63.40;;;;;;5075665;28;20037;-93
2023/01/17 13:15:29;;;;;;;6.43;1.73;;;15.20;61.70;;;;;;5075647;28;20046;-93
2023/01/17 13:18:24;;;;;;;7.50;2.00;;;15.40;60.00;;;;;;5093054;28;20043;-94
2023/01/17 13:21:09;;;;;;;6.80;1.63;;;15.00;56.80;;;;;;5089373;28;20125;-93
2023/01/17 13:23:52;;;;;;;7.32;1.70;;;15.10;57.40;;;;;;5075377;28;20035;-94
2023/01/17 13:26:26;;;;;;;;;;;15.10;58.40;;;;;;5075925;28;20034;-94
2023/01/17 13:29:15;;;;;;;9.05;2.03;;;14.60;57.40;;;;;;5092673;28;19929;-93
2023/01/17 13:32:02;;;;;;;7.43;1.77;;;14.80;57.80;;;;;;5074662;28;20496;-93
2023/01/17 13:35:01;;;;;;;7.88;1.83;;;14.80;57.80;;;;;;5075577;28;20043;-92
2023/01/17 13:37:48;;;;;;;7.57;1.70;;;14.70;56.50;;;;;;5075931;28;20047;-93
2023/01/17 13:40:28;;;;;;;6.80;1.90;;;14.70;56.80;;;;;;5075651;28;20496;-94
2023/01/17 13:42:55;;;;;;;7.00;2.67;;;14.70;56.00;;;;;;5074933;28;20044;-94
2023/01/17 13:45:24;;;;;;;11.55;3.08;;;14.60;56.50;;;;;;5092611;28;20064;-94
2023/01/17 13:47:51;;;;;;;9.63;2.42;;;14.60;55.80;;;;;;5092683;28;20370;-94
2023/01/17 13:50:35;;;;;;;8.07;1.80;;;14.80;56.50;;;;;;5074619;28;20070;-93
2023/01/17 13:53:33;;;;;;;6.78;1.80;;;14.90;55.10;;;;;;5074740;28;20042;-95
2023/01/17 13:56:13;;;;;;;5.15;1.50;;;15.20;54.00;;;;;;5074996;28;20569;-94
2023/01/17 13:58:56;;;;;;;6.53;1.73;;;15.20;53.70;;;;;;5075876;28;20035;-94
2023/01/17 14:01:21;;;;;;;7.75;1.77;;;15.10;54.40;;;;;;5092039;28;20043;-94
2023/01/17 14:03:50;;;;;;;5.75;1.70;;;15.50;54.40;;;;;;5074946;28;20048;-95
2023/01/17 14:06:29;;;;;;;7.22;1.70;;;16.00;54.50;;;;;;5092986;28;20591;-94
2023/01/17 14:09:11;;;;;;;7.28;1.70;;;16.60;54.10;;;;;;5075203;28;20028;-94
2023/01/17 14:11:55;;;;;;;10.77;1.52;;;16.00;52.90;;;;;;5075424;28;20039;-94
2023/01/17 14:14:39;;;;;;;4.30;1.25;;;15.70;51.60;;;;;;5074833;28;20396;-94
2023/01/17 14:17:27;;;;;;;6.93;1.52;;;15.50;51.50;;;;;;5076124;28;20075;-94
2023/01/17 14:20:39;;;;;;;5.43;1.10;;;15.30;52.30;;;;;;5091911;28;20058;-94
2023/01/17 14:23:28;;;;;;;5.47;1.30;;;14.70;51.70;;;;;;5071735;28;20138;-94
2023/01/17 14:25:58;;;;;;;6.07;1.40;;;13.80;54.80;;;;;;5091779;28;20036;-93
2023/01/17 14:28:28;;;;;;;6.20;1.52;;;13.40;55.20;;;;;;5095084;28;20424;-94
2023/01/17 14:30:55;;;;;;;6.07;1.13;;;13.20;56.80;;;;;;5072601;28;20454;-94
2023/01/17 14:33:50;;;;;;;5.85;1.35;;;12.60;57.90;;;;;;5067268;28;20146;-94
2023/01/17 14:36:28;;;;;;;7.00;1.70;;;12.60;58.20;;;;;;4998355;28;20081;-94
2023/01/17 14:38:54;;;;;;;5.85;1.23;;;12.70;58.20;;;;;;4990302;28;20072;-93
2023/01/17 14:41:24;;;;;;;4.95;1.48;;;12.70;59.10;;;;;;4997652;28;20491;-94
2023/01/17 14:43:51;;;;;;;6.57;1.05;;;12.70;59.40;;;;;;5010616;28;20069;-94